sensor_id;sensor_type;location;lat;lon;timestamp;temperature;humidity
29571;DHT22;16814;52.118;11.436;2022-09-09T00:01:20;15.40;99.90
29571;DHT22;16814;52.118;11.436;2022-09-09T00:03:54;15.40;99.90
29571;DHT22;16814;52.118;11.436;2022-09-09T00:06:31;15.40;99.90
29571;DHT22;16814;52.118;11.436;2022-09-09T00:09:12;15.40;99.90
29571;DHT22;16814;52.118;11.436;2022-09-09T00:11:45;15.40;99.90
29571;DHT22;16814;52.118;11.436;2022-09-09T00:14:27;15.40;99.90
29571;DHT22;16814;52.118;11.436;2022-09-09T00:17:02;15.40;99.90
29571;DHT22;16814;52.118;11.436;2022-09-09T00:19:56;15.20;99.90
29571;DHT22;16814;52.118;11.436;2022-09-09T00:22:28;15.10;99.90
29571;DHT22;16814;52.118;11.436;2022-09-09T00:24:57;15.10;99.90
29571;DHT22;16814;52.118;11.436;2022-09-09T00:27:40;15.10;99.90
29571;DHT22;16814;52.118;11.436;2022-09-09T00:30:22;15.00;99.90
29571;DHT22;16814;52.118;11.436;2022-09-09T00:32:58;15.10;99.90
29571;DHT22;16814;52.118;11.436;2022-09-09T00:35:37;15.10;99.90
29571;DHT22;16814;52.118;11.436;2022-09-09T00:38:12;15.10;99.90
29571;DHT22;16814;52.118;11.436;2022-09-09T00:40:48;15.10;99.90
29571;DHT22;16814;52.118;11.436;2022-09-09T00:43:31;15.00;99.90
29571;DHT22;16814;52.118;11.436;2022-09-09T00:54:18;14.90;99.90
29571;DHT22;16814;52.118;11.436;2022-09-09T00:57:13;14.90;99.90
29571;DHT22;16814;52.118;11.436;2022-09-09T00:59:47;14.90;99.90
29571;DHT22;16814;52.118;11.436;2022-09-09T01:02:31;15.00;99.90
29571;DHT22;16814;52.118;11.436;2022-09-09T01:05:20;14.90;99.90
29571;DHT22;16814;52.118;11.436;2022-09-09T01:07:51;14.90;99.90
29571;DHT22;16814;52.118;11.436;2022-09-09T01:10:51;14.90;99.90
29571;DHT22;16814;52.118;11.436;2022-09-09T01:13:25;14.90;99.90
29571;DHT22;16814;52.118;11.436;2022-09-09T01:15:53;14.90;99.90
29571;DHT22;16814;52.118;11.436;2022-09-09T01:18:21;14.90;99.90
29571;DHT22;16814;52.118;11.436;2022-09-09T01:21:05;14.90;99.90
29571;DHT22;16814;52.118;11.436;2022-09-09T01:26:43;14.90;99.90
29571;DHT22;16814;52.118;11.436;2022-09-09T01:29:16;14.90;99.90
29571;DHT22;16814;52.118;11.436;2022-09-09T01:31:58;14.90;99.90
29571;DHT22;16814;52.118;11.436;2022-09-09T01:34:28;14.80;99.90
29571;DHT22;16814;52.118;11.436;2022-09-09T01:37:08;14.70;99.90
29571;DHT22;16814;52.118;11.436;2022-09-09T01:39:36;14.70;99.90
29571;DHT22;16814;52.118;11.436;2022-09-09T01:42:03;14.60;99.90
29571;DHT22;16814;52.118;11.436;2022-09-09T01:44:30;14.70;99.90
29571;DHT22;16814;52.118;11.436;2022-09-09T01:46:56;14.70;99.90
29571;DHT22;16814;52.118;11.436;2022-09-09T01:49:22;14.60;99.90
29571;DHT22;16814;52.118;11.436;2022-09-09T01:51:53;14.50;99.90
29571;DHT22;16814;52.118;11.436;2022-09-09T01:54:21;14.50;99.90
29571;DHT22;16814;52.118;11.436;2022-09-09T01:57:02;14.50;99.90
29571;DHT22;16814;52.118;11.436;2022-09-09T02:02:17;14.40;99.90
29571;DHT22;16814;52.118;11.436;2022-09-09T02:04:52;14.40;99.90
29571;DHT22;16814;52.118;11.436;2022-09-09T02:07:39;14.40;99.90
29571;DHT22;16814;52.118;11.436;2022-09-09T02:10:20;14.40;99.90
29571;DHT22;16814;52.118;11.436;2022-09-09T02:12:51;14.30;99.90
29571;DHT22;16814;52.118;11.436;2022-09-09T02:15:28;14.40;99.90
29571;DHT22;16814;52.118;11.436;2022-09-09T02:17:57;14.30;99.90
29571;DHT22;16814;52.118;11.436;2022-09-09T02:20:24;14.30;99.90
29571;DHT22;16814;52.118;11.436;2022-09-09T02:22:53;14.20;99.90
29571;DHT22;16814;52.118;11.436;2022-09-09T02:25:21;14.20;99.90
29571;DHT22;16814;52.118;11.436;2022-09-09T02:27:50;14.10;99.90
29571;DHT22;16814;52.118;11.436;2022-09-09T02:30:16;14.00;99.90
29571;DHT22;16814;52.118;11.436;2022-09-09T02:32:43;14.00;99.90
29571;DHT22;16814;52.118;11.436;2022-09-09T02:35:12;14.10;99.90
29571;DHT22;16814;52.118;11.436;2022-09-09T02:37:41;14.10;99.90
29571;DHT22;16814;52.118;11.436;2022-09-09T02:40:10;14.20;99.90
29571;DHT22;16814;52.118;11.436;2022-09-09T02:42:43;14.20;99.90
29571;DHT22;16814;52.118;11.436;2022-09-09T02:45:11;14.20;99.90
29571;DHT22;16814;52.118;11.436;2022-09-09T02:48:11;14.00;99.90
29571;DHT22;16814;52.118;11.436;2022-09-09T02:50:54;13.70;99.90
29571;DHT22;16814;52.118;11.436;2022-09-09T02:53:31;13.70;99.90
29571;DHT22;16814;52.118;11.436;2022-09-09T02:56:04;13.70;99.90
29571;DHT22;16814;52.118;11.436;2022-09-09T02:58:32;13.70;99.90
29571;DHT22;16814;52.118;11.436;2022-09-09T03:00:57;13.80;99.90
29571;DHT22;16814;52.118;11.436;2022-09-09T03:03:23;13.90;99.90
29571;DHT22;16814;52.118;11.436;2022-09-09T03:05:49;14.00;99.90
29571;DHT22;16814;52.118;11.436;2022-09-09T03:08:16;14.10;99.90
29571;DHT22;16814;52.118;11.436;2022-09-09T03:10:41;14.10;99.90
29571;DHT22;16814;52.118;11.436;2022-09-09T03:13:07;14.10;99.90
29571;DHT22;16814;52.118;11.436;2022-09-09T03:15:33;14.10;99.90
29571;DHT22;16814;52.118;11.436;2022-09-09T03:17:59;14.00;99.90
29571;DHT22;16814;52.118;11.436;2022-09-09T03:20:26;14.10;99.90
29571;DHT22;16814;52.118;11.436;2022-09-09T03:22:52;14.20;99.90
29571;DHT22;16814;52.118;11.436;2022-09-09T03:25:18;14.10;99.90
29571;DHT22;16814;52.118;11.436;2022-09-09T03:27:44;14.00;99.90
29571;DHT22;16814;52.118;11.436;2022-09-09T03:30:10;14.00;99.90
29571;DHT22;16814;52.118;11.436;2022-09-09T03:32:36;13.90;99.90
29571;DHT22;16814;52.118;11.436;2022-09-09T03:35:01;13.90;99.90
29571;DHT22;16814;52.118;11.436;2022-09-09T03:37:27;13.90;99.90
29571;DHT22;16814;52.118;11.436;2022-09-09T03:39:52;14.00;99.90
29571;DHT22;16814;52.118;11.436;2022-09-09T03:42:20;13.90;99.90
29571;DHT22;16814;52.118;11.436;2022-09-09T03:44:47;14.00;99.90
29571;DHT22;16814;52.118;11.436;2022-09-09T03:47:18;13.90;99.90
29571;DHT22;16814;52.118;11.436;2022-09-09T03:49:44;14.00;99.90
29571;DHT22;16814;52.118;11.436;2022-09-09T03:52:10;14.00;99.90
29571;DHT22;16814;52.118;11.436;2022-09-09T03:54:35;14.00;99.90
29571;DHT22;16814;52.118;11.436;2022-09-09T03:57:01;14.10;99.90
29571;DHT22;16814;52.118;11.436;2022-09-09T03:59:27;14.10;99.90
29571;DHT22;16814;52.118;11.436;2022-09-09T04:01:53;14.10;99.90
29571;DHT22;16814;52.118;11.436;2022-09-09T04:04:19;14.30;99.90
29571;DHT22;16814;52.118;11.436;2022-09-09T04:06:45;14.30;99.90
29571;DHT22;16814;52.118;11.436;2022-09-09T04:09:12;14.30;99.90
29571;DHT22;16814;52.118;11.436;2022-09-09T04:11:37;14.40;99.90
29571;DHT22;16814;52.118;11.436;2022-09-09T04:14:03;14.30;99.90
29571;DHT22;16814;52.118;11.436;2022-09-09T04:16:31;14.30;99.90
29571;DHT22;16814;52.118;11.436;2022-09-09T04:18:57;14.20;99.90
29571;DHT22;16814;52.118;11.436;2022-09-09T04:21:23;14.20;99.90
29571;DHT22;16814;52.118;11.436;2022-09-09T04:23:49;14.20;99.90
29571;DHT22;16814;52.118;11.436;2022-09-09T04:26:14;14.20;99.90
29571;DHT22;16814;52.118;11.436;2022-09-09T04:28:40;14.10;99.90
29571;DHT22;16814;52.118;11.436;2022-09-09T04:31:08;14.10;99.90
29571;DHT22;16814;52.118;11.436;2022-09-09T04:33:34;14.10;99.90
29571;DHT22;16814;52.118;11.436;2022-09-09T04:36:00;14.10;99.90
29571;DHT22;16814;52.118;11.436;2022-09-09T04:38:25;14.20;99.90
29571;DHT22;16814;52.118;11.436;2022-09-09T04:40:51;14.20;99.90
29571;DHT22;16814;52.118;11.436;2022-09-09T04:43:19;14.10;99.90
29571;DHT22;16814;52.118;11.436;2022-09-09T04:45:50;14.10;99.90
29571;DHT22;16814;52.118;11.436;2022-09-09T04:48:16;14.00;99.90
29571;DHT22;16814;52.118;11.436;2022-09-09T04:50:42;14.00;99.90
29571;DHT22;16814;52.118;11.436;2022-09-09T04:53:07;14.00;99.90
29571;DHT22;16814;52.118;11.436;2022-09-09T04:55:34;14.00;99.90
29571;DHT22;16814;52.118;11.436;2022-09-09T04:58:07;13.90;99.90
29571;DHT22;16814;52.118;11.436;2022-09-09T05:00:34;13.80;99.90
29571;DHT22;16814;52.118;11.436;2022-09-09T05:03:03;13.80;99.90
29571;DHT22;16814;52.118;11.436;2022-09-09T05:05:29;13.90;99.90
29571;DHT22;16814;52.118;11.436;2022-09-09T05:08:04;14.10;99.90
29571;DHT22;16814;52.118;11.436;2022-09-09T05:10:30;14.20;99.90
29571;DHT22;16814;52.118;11.436;2022-09-09T05:12:55;14.30;99.90
29571;DHT22;16814;52.118;11.436;2022-09-09T05:15:21;14.40;99.90
29571;DHT22;16814;52.118;11.436;2022-09-09T05:17:46;14.50;99.90
29571;DHT22;16814;52.118;11.436;2022-09-09T05:20:12;14.30;99.90
29571;DHT22;16814;52.118;11.436;2022-09-09T05:22:38;14.20;99.90
29571;DHT22;16814;52.118;11.436;2022-09-09T05:25:04;14.20;99.90
29571;DHT22;16814;52.118;11.436;2022-09-09T05:27:29;14.20;99.90
29571;DHT22;16814;52.118;11.436;2022-09-09T05:29:57;14.30;99.90
29571;DHT22;16814;52.118;11.436;2022-09-09T05:32:23;14.30;99.90
29571;DHT22;16814;52.118;11.436;2022-09-09T05:34:49;14.30;99.90
29571;DHT22;16814;52.118;11.436;2022-09-09T05:37:15;14.30;99.90
29571;DHT22;16814;52.118;11.436;2022-09-09T05:39:42;14.30;99.90
29571;DHT22;16814;52.118;11.436;2022-09-09T05:42:07;14.30;99.90
29571;DHT22;16814;52.118;11.436;2022-09-09T05:44:33;14.30;99.90
29571;DHT22;16814;52.118;11.436;2022-09-09T05:46:58;14.30;99.90
29571;DHT22;16814;52.118;11.436;2022-09-09T05:49:24;14.40;99.90
29571;DHT22;16814;52.118;11.436;2022-09-09T05:51:49;14.40;99.90
29571;DHT22;16814;52.118;11.436;2022-09-09T05:54:16;14.40;99.90
29571;DHT22;16814;52.118;11.436;2022-09-09T05:56:42;14.40;99.90
29571;DHT22;16814;52.118;11.436;2022-09-09T05:59:08;14.40;99.90
29571;DHT22;16814;52.118;11.436;2022-09-09T06:01:36;14.50;99.90
29571;DHT22;16814;52.118;11.436;2022-09-09T06:04:06;14.50;99.90
29571;DHT22;16814;52.118;11.436;2022-09-09T06:06:33;14.60;99.90
29571;DHT22;16814;52.118;11.436;2022-09-09T06:09:03;14.50;99.90
29571;DHT22;16814;52.118;11.436;2022-09-09T06:11:32;14.60;99.90
29571;DHT22;16814;52.118;11.436;2022-09-09T06:13:59;14.80;99.90
29571;DHT22;16814;52.118;11.436;2022-09-09T06:16:26;14.80;99.90
29571;DHT22;16814;52.118;11.436;2022-09-09T06:18:53;14.80;99.90
29571;DHT22;16814;52.118;11.436;2022-09-09T06:21:25;14.90;99.90
29571;DHT22;16814;52.118;11.436;2022-09-09T06:23:51;14.90;99.90
29571;DHT22;16814;52.118;11.436;2022-09-09T06:26:25;14.90;99.90
29571;DHT22;16814;52.118;11.436;2022-09-09T06:28:52;14.90;99.90
29571;DHT22;16814;52.118;11.436;2022-09-09T06:31:21;15.00;99.90
29571;DHT22;16814;52.118;11.436;2022-09-09T06:33:47;15.10;99.90
29571;DHT22;16814;52.118;11.436;2022-09-09T06:36:16;15.10;99.90
29571;DHT22;16814;52.118;11.436;2022-09-09T06:38:43;15.20;99.90
29571;DHT22;16814;52.118;11.436;2022-09-09T06:41:10;15.40;99.90
29571;DHT22;16814;52.118;11.436;2022-09-09T06:43:35;15.50;99.90
29571;DHT22;16814;52.118;11.436;2022-09-09T06:46:05;15.60;99.90
29571;DHT22;16814;52.118;11.436;2022-09-09T06:48:31;15.70;99.90
29571;DHT22;16814;52.118;11.436;2022-09-09T06:51:21;15.70;99.90
29571;DHT22;16814;52.118;11.436;2022-09-09T06:53:50;16.00;99.90
29571;DHT22;16814;52.118;11.436;2022-09-09T06:56:28;17.10;99.90
29571;DHT22;16814;52.118;11.436;2022-09-09T06:58:55;18.50;99.90
29571;DHT22;16814;52.118;11.436;2022-09-09T07:01:26;19.30;99.90
29571;DHT22;16814;52.118;11.436;2022-09-09T07:03:55;19.70;99.90
29571;DHT22;16814;52.118;11.436;2022-09-09T07:06:26;19.80;99.90
29571;DHT22;16814;52.118;11.436;2022-09-09T07:08:56;19.60;99.90
29571;DHT22;16814;52.118;11.436;2022-09-09T07:11:27;18.80;99.90
29571;DHT22;16814;52.118;11.436;2022-09-09T07:13:54;18.30;99.90
29571;DHT22;16814;52.118;11.436;2022-09-09T07:16:21;17.80;99.90
29571;DHT22;16814;52.118;11.436;2022-09-09T07:18:51;17.60;99.90
29571;DHT22;16814;52.118;11.436;2022-09-09T07:21:17;17.50;99.90
29571;DHT22;16814;52.118;11.436;2022-09-09T07:23:43;17.60;99.90
29571;DHT22;16814;52.118;11.436;2022-09-09T07:26:17;17.60;99.90
29571;DHT22;16814;52.118;11.436;2022-09-09T07:28:44;17.80;99.90
29571;DHT22;16814;52.118;11.436;2022-09-09T07:31:15;18.00;99.90
29571;DHT22;16814;52.118;11.436;2022-09-09T07:33:42;18.30;99.90
29571;DHT22;16814;52.118;11.436;2022-09-09T07:36:10;18.40;99.90
29571;DHT22;16814;52.118;11.436;2022-09-09T07:38:39;18.30;99.90
29571;DHT22;16814;52.118;11.436;2022-09-09T07:41:07;18.00;99.90
29571;DHT22;16814;52.118;11.436;2022-09-09T07:43:40;17.80;99.90
29571;DHT22;16814;52.118;11.436;2022-09-09T07:46:06;17.70;99.90
29571;DHT22;16814;52.118;11.436;2022-09-09T07:48:33;17.70;99.90
29571;DHT22;16814;52.118;11.436;2022-09-09T07:51:08;17.60;99.90
29571;DHT22;16814;52.118;11.436;2022-09-09T07:53:34;17.70;99.90
29571;DHT22;16814;52.118;11.436;2022-09-09T07:56:11;17.70;99.90
29571;DHT22;16814;52.118;11.436;2022-09-09T07:58:37;17.60;99.90
29571;DHT22;16814;52.118;11.436;2022-09-09T08:01:15;17.50;99.90
29571;DHT22;16814;52.118;11.436;2022-09-09T08:03:43;17.60;99.90
29571;DHT22;16814;52.118;11.436;2022-09-09T08:06:10;17.70;99.90
29571;DHT22;16814;52.118;11.436;2022-09-09T08:08:36;17.80;99.90
29571;DHT22;16814;52.118;11.436;2022-09-09T08:11:15;17.90;99.90
29571;DHT22;16814;52.118;11.436;2022-09-09T08:13:42;18.00;99.90
29571;DHT22;16814;52.118;11.436;2022-09-09T08:16:11;18.10;99.90
29571;DHT22;16814;52.118;11.436;2022-09-09T08:18:37;18.30;99.90
29571;DHT22;16814;52.118;11.436;2022-09-09T08:21:10;18.50;99.90
29571;DHT22;16814;52.118;11.436;2022-09-09T08:23:40;18.80;99.90
29571;DHT22;16814;52.118;11.436;2022-09-09T08:26:12;19.20;99.90
29571;DHT22;16814;52.118;11.436;2022-09-09T08:28:39;19.80;99.90
29571;DHT22;16814;52.118;11.436;2022-09-09T08:31:16;20.50;99.90
29571;DHT22;16814;52.118;11.436;2022-09-09T08:33:43;21.00;99.90
29571;DHT22;16814;52.118;11.436;2022-09-09T08:36:19;21.00;99.90
29571;DHT22;16814;52.118;11.436;2022-09-09T08:38:49;20.80;99.90
29571;DHT22;16814;52.118;11.436;2022-09-09T08:44:23;20.40;99.90
29571;DHT22;16814;52.118;11.436;2022-09-09T08:52:28;20.30;99.90
29571;DHT22;16814;52.118;11.436;2022-09-09T08:55:24;20.50;99.90
29571;DHT22;16814;52.118;11.436;2022-09-09T08:57:53;21.00;99.90
29571;DHT22;16814;52.118;11.436;2022-09-09T09:00:20;21.80;99.90
29571;DHT22;16814;52.118;11.436;2022-09-09T09:05:36;22.50;99.90
29571;DHT22;16814;52.118;11.436;2022-09-09T09:08:29;22.70;99.90
29571;DHT22;16814;52.118;11.436;2022-09-09T09:10:58;22.80;99.90
29571;DHT22;16814;52.118;11.436;2022-09-09T09:13:47;23.00;99.90
29571;DHT22;16814;52.118;11.436;2022-09-09T09:16:42;23.20;99.90
29571;DHT22;16814;52.118;11.436;2022-09-09T09:19:15;23.40;99.90
29571;DHT22;16814;52.118;11.436;2022-09-09T09:22:00;23.40;99.90
29571;DHT22;16814;52.118;11.436;2022-09-09T09:24:55;23.30;99.90
29571;DHT22;16814;52.118;11.436;2022-09-09T09:27:31;23.10;99.90
29571;DHT22;16814;52.118;11.436;2022-09-09T09:29:59;23.10;99.90
29571;DHT22;16814;52.118;11.436;2022-09-09T09:32:30;23.30;99.90
29571;DHT22;16814;52.118;11.436;2022-09-09T09:34:57;23.40;99.90
29571;DHT22;16814;52.118;11.436;2022-09-09T09:37:31;23.70;99.90
29571;DHT22;16814;52.118;11.436;2022-09-09T09:40:11;23.90;99.90
29571;DHT22;16814;52.118;11.436;2022-09-09T09:42:37;23.90;99.90
29571;DHT22;16814;52.118;11.436;2022-09-09T09:45:26;23.60;99.90
29571;DHT22;16814;52.118;11.436;2022-09-09T09:50:25;22.80;99.90
29571;DHT22;16814;52.118;11.436;2022-09-09T09:52:59;22.60;99.90
29571;DHT22;16814;52.118;11.436;2022-09-09T09:55:26;22.40;99.90
29571;DHT22;16814;52.118;11.436;2022-09-09T09:58:01;22.50;99.90
29571;DHT22;16814;52.118;11.436;2022-09-09T10:00:27;22.60;99.90
29571;DHT22;16814;52.118;11.436;2022-09-09T10:02:52;22.90;99.90
29571;DHT22;16814;52.118;11.436;2022-09-09T10:05:21;22.80;99.90
29571;DHT22;16814;52.118;11.436;2022-09-09T10:08:00;22.70;99.90
29571;DHT22;16814;52.118;11.436;2022-09-09T10:10:47;22.50;99.90
29571;DHT22;16814;52.118;11.436;2022-09-09T10:16:10;22.20;99.90
29571;DHT22;16814;52.118;11.436;2022-09-09T10:18:52;22.10;99.90
29571;DHT22;16814;52.118;11.436;2022-09-09T10:27:43;22.40;99.90
29571;DHT22;16814;52.118;11.436;2022-09-09T10:30:19;22.90;99.90
29571;DHT22;16814;52.118;11.436;2022-09-09T10:33:10;23.10;99.90
29571;DHT22;16814;52.118;11.436;2022-09-09T10:36:13;23.40;99.90
29571;DHT22;16814;52.118;11.436;2022-09-09T10:38:42;23.60;99.90
29571;DHT22;16814;52.118;11.436;2022-09-09T10:41:53;24.00;99.90
29571;DHT22;16814;52.118;11.436;2022-09-09T10:44:27;24.10;99.90
29571;DHT22;16814;52.118;11.436;2022-09-09T10:55:51;23.00;99.90
29571;DHT22;16814;52.118;11.436;2022-09-09T10:58:30;23.00;99.90
29571;DHT22;16814;52.118;11.436;2022-09-09T11:01:06;23.20;99.90
29571;DHT22;16814;52.118;11.436;2022-09-09T11:03:36;23.40;99.90
29571;DHT22;16814;52.118;11.436;2022-09-09T11:06:06;23.70;99.90
29571;DHT22;16814;52.118;11.436;2022-09-09T11:08:38;23.80;99.90
29571;DHT22;16814;52.118;11.436;2022-09-09T11:13:54;23.60;99.90
29571;DHT22;16814;52.118;11.436;2022-09-09T11:16:39;23.80;99.90
29571;DHT22;16814;52.118;11.436;2022-09-09T11:21:48;23.70;99.90
29571;DHT22;16814;52.118;11.436;2022-09-09T11:24:28;23.70;99.90
29571;DHT22;16814;52.118;11.436;2022-09-09T11:27:27;23.40;99.90
29571;DHT22;16814;52.118;11.436;2022-09-09T11:30:13;23.50;99.90
29571;DHT22;16814;52.118;11.436;2022-09-09T11:33:03;23.50;99.90
29571;DHT22;16814;52.118;11.436;2022-09-09T11:38:37;23.60;99.90
29571;DHT22;16814;52.118;11.436;2022-09-09T11:41:07;23.40;99.90
29571;DHT22;16814;52.118;11.436;2022-09-09T11:43:51;23.10;99.90
29571;DHT22;16814;52.118;11.436;2022-09-09T11:46:20;22.80;99.90
29571;DHT22;16814;52.118;11.436;2022-09-09T11:49:05;22.50;99.90
29571;DHT22;16814;52.118;11.436;2022-09-09T11:51:32;22.50;99.90
29571;DHT22;16814;52.118;11.436;2022-09-09T11:56:47;22.80;99.90
29571;DHT22;16814;52.118;11.436;2022-09-09T11:59:21;22.90;99.90
29571;DHT22;16814;52.118;11.436;2022-09-09T12:02:18;22.90;99.90
29571;DHT22;16814;52.118;11.436;2022-09-09T12:04:55;22.80;99.90
29571;DHT22;16814;52.118;11.436;2022-09-09T12:07:23;23.00;99.90
29571;DHT22;16814;52.118;11.436;2022-09-09T12:09:51;22.90;99.90
29571;DHT22;16814;52.118;11.436;2022-09-09T12:12:44;23.10;99.90
29571;DHT22;16814;52.118;11.436;2022-09-09T12:17:48;23.20;99.90
29571;DHT22;16814;52.118;11.436;2022-09-09T12:20:19;23.00;99.90
29571;DHT22;16814;52.118;11.436;2022-09-09T12:25:49;23.10;99.90
29571;DHT22;16814;52.118;11.436;2022-09-09T12:28:21;23.10;99.90
29571;DHT22;16814;52.118;11.436;2022-09-09T12:33:38;23.10;99.90
29571;DHT22;16814;52.118;11.436;2022-09-09T12:36:12;22.90;99.90
29571;DHT22;16814;52.118;11.436;2022-09-09T12:38:41;22.60;99.90
29571;DHT22;16814;52.118;11.436;2022-09-09T12:41:23;22.60;99.90
29571;DHT22;16814;52.118;11.436;2022-09-09T12:43:49;22.50;99.90
29571;DHT22;16814;52.118;11.436;2022-09-09T12:46:30;22.40;99.90
29571;DHT22;16814;52.118;11.436;2022-09-09T12:48:58;22.40;99.90
29571;DHT22;16814;52.118;11.436;2022-09-09T12:51:28;22.50;99.90
29571;DHT22;16814;52.118;11.436;2022-09-09T12:53:54;22.30;99.90
29571;DHT22;16814;52.118;11.436;2022-09-09T12:56:26;22.30;99.90
29571;DHT22;16814;52.118;11.436;2022-09-09T12:58:53;22.50;99.90
29571;DHT22;16814;52.118;11.436;2022-09-09T13:01:30;22.70;99.90
29571;DHT22;16814;52.118;11.436;2022-09-09T13:03:56;22.50;99.90
29571;DHT22;16814;52.118;11.436;2022-09-09T13:06:26;22.20;99.90
29571;DHT22;16814;52.118;11.436;2022-09-09T13:08:54;21.90;99.90
29571;DHT22;16814;52.118;11.436;2022-09-09T13:11:30;21.60;99.90
29571;DHT22;16814;52.118;11.436;2022-09-09T13:13:57;21.50;99.90
29571;DHT22;16814;52.118;11.436;2022-09-09T13:16:26;21.10;99.90
29571;DHT22;16814;52.118;11.436;2022-09-09T13:19:01;20.90;99.90
29571;DHT22;16814;52.118;11.436;2022-09-09T13:21:35;19.90;99.90
29571;DHT22;16814;52.118;11.436;2022-09-09T13:24:04;19.60;99.90
29571;DHT22;16814;52.118;11.436;2022-09-09T13:26:31;19.30;99.90
29571;DHT22;16814;52.118;11.436;2022-09-09T13:29:14;19.00;99.90
29571;DHT22;16814;52.118;11.436;2022-09-09T13:31:42;18.70;99.90
29571;DHT22;16814;52.118;11.436;2022-09-09T13:34:32;18.30;99.90
29571;DHT22;16814;52.118;11.436;2022-09-09T13:37:01;18.20;99.90
29571;DHT22;16814;52.118;11.436;2022-09-09T13:39:33;18.20;99.90
29571;DHT22;16814;52.118;11.436;2022-09-09T13:41:59;18.30;99.90
29571;DHT22;16814;52.118;11.436;2022-09-09T13:44:27;18.60;99.90
29571;DHT22;16814;52.118;11.436;2022-09-09T13:47:01;18.80;99.90
29571;DHT22;16814;52.118;11.436;2022-09-09T13:49:29;19.00;99.90
29571;DHT22;16814;52.118;11.436;2022-09-09T13:54:32;19.30;99.90
29571;DHT22;16814;52.118;11.436;2022-09-09T13:56:58;19.30;99.90
29571;DHT22;16814;52.118;11.436;2022-09-09T13:59:23;19.30;99.90
29571;DHT22;16814;52.118;11.436;2022-09-09T14:01:49;19.20;99.90
29571;DHT22;16814;52.118;11.436;2022-09-09T14:04:18;19.10;99.90
29571;DHT22;16814;52.118;11.436;2022-09-09T14:06:46;19.10;99.90
29571;DHT22;16814;52.118;11.436;2022-09-09T14:09:13;19.20;99.90
29571;DHT22;16814;52.118;11.436;2022-09-09T14:11:40;19.40;99.90
29571;DHT22;16814;52.118;11.436;2022-09-09T14:14:06;19.60;99.90
29571;DHT22;16814;52.118;11.436;2022-09-09T14:16:32;19.60;99.90
29571;DHT22;16814;52.118;11.436;2022-09-09T14:18:58;19.60;99.90
29571;DHT22;16814;52.118;11.436;2022-09-09T14:21:25;19.60;99.90
29571;DHT22;16814;52.118;11.436;2022-09-09T14:23:51;19.60;99.90
29571;DHT22;16814;52.118;11.436;2022-09-09T14:26:18;19.60;99.90
29571;DHT22;16814;52.118;11.436;2022-09-09T14:28:46;19.60;99.90
29571;DHT22;16814;52.118;11.436;2022-09-09T14:31:12;19.60;99.90
29571;DHT22;16814;52.118;11.436;2022-09-09T14:33:38;19.60;99.90
29571;DHT22;16814;52.118;11.436;2022-09-09T14:36:05;20.00;99.90
29571;DHT22;16814;52.118;11.436;2022-09-09T14:38:35;20.00;99.90
29571;DHT22;16814;52.118;11.436;2022-09-09T14:41:05;20.30;99.90
29571;DHT22;16814;52.118;11.436;2022-09-09T14:43:31;20.50;99.90
29571;DHT22;16814;52.118;11.436;2022-09-09T14:46:04;20.50;99.90
29571;DHT22;16814;52.118;11.436;2022-09-09T14:48:31;20.60;99.90
29571;DHT22;16814;52.118;11.436;2022-09-09T14:50:56;20.60;99.90
29571;DHT22;16814;52.118;11.436;2022-09-09T14:53:22;20.50;99.90
29571;DHT22;16814;52.118;11.436;2022-09-09T14:55:47;20.60;99.90
29571;DHT22;16814;52.118;11.436;2022-09-09T14:58:13;20.50;99.90
29571;DHT22;16814;52.118;11.436;2022-09-09T15:00:39;20.60;99.90
29571;DHT22;16814;52.118;11.436;2022-09-09T15:03:04;20.50;99.90
29571;DHT22;16814;52.118;11.436;2022-09-09T15:05:30;20.50;99.90
29571;DHT22;16814;52.118;11.436;2022-09-09T15:07:57;20.50;99.90
29571;DHT22;16814;52.118;11.436;2022-09-09T15:10:23;20.60;99.90
29571;DHT22;16814;52.118;11.436;2022-09-09T15:12:49;20.60;99.90
29571;DHT22;16814;52.118;11.436;2022-09-09T15:15:15;20.70;99.90
29571;DHT22;16814;52.118;11.436;2022-09-09T15:17:40;20.60;99.90
29571;DHT22;16814;52.118;11.436;2022-09-09T15:20:06;20.70;99.90
29571;DHT22;16814;52.118;11.436;2022-09-09T15:22:32;20.80;99.90
29571;DHT22;16814;52.118;11.436;2022-09-09T15:24:59;20.80;99.90
29571;DHT22;16814;52.118;11.436;2022-09-09T15:27:24;20.70;99.90
29571;DHT22;16814;52.118;11.436;2022-09-09T15:29:50;20.80;99.90
29571;DHT22;16814;52.118;11.436;2022-09-09T15:32:17;20.70;99.90
29571;DHT22;16814;52.118;11.436;2022-09-09T15:34:43;20.60;99.90
29571;DHT22;16814;52.118;11.436;2022-09-09T15:37:12;20.50;99.90
29571;DHT22;16814;52.118;11.436;2022-09-09T15:39:40;20.40;99.90
29571;DHT22;16814;52.118;11.436;2022-09-09T15:42:06;20.30;99.90
29571;DHT22;16814;52.118;11.436;2022-09-09T15:44:42;20.20;99.90
29571;DHT22;16814;52.118;11.436;2022-09-09T15:47:09;20.20;99.90
29571;DHT22;16814;52.118;11.436;2022-09-09T15:49:35;20.10;99.90
29571;DHT22;16814;52.118;11.436;2022-09-09T15:52:01;20.10;99.90
29571;DHT22;16814;52.118;11.436;2022-09-09T15:54:32;20.10;99.90
29571;DHT22;16814;52.118;11.436;2022-09-09T15:57:00;20.20;99.90
29571;DHT22;16814;52.118;11.436;2022-09-09T15:59:27;20.20;99.90
29571;DHT22;16814;52.118;11.436;2022-09-09T16:01:53;20.20;99.90
29571;DHT22;16814;52.118;11.436;2022-09-09T16:04:20;20.20;99.90
29571;DHT22;16814;52.118;11.436;2022-09-09T16:07:00;20.10;99.90
29571;DHT22;16814;52.118;11.436;2022-09-09T16:09:26;20.00;99.90
29571;DHT22;16814;52.118;11.436;2022-09-09T16:11:54;19.90;99.90
29571;DHT22;16814;52.118;11.436;2022-09-09T16:14:21;20.00;99.90
29571;DHT22;16814;52.118;11.436;2022-09-09T16:16:47;20.00;99.90
29571;DHT22;16814;52.118;11.436;2022-09-09T16:19:13;20.10;99.90
29571;DHT22;16814;52.118;11.436;2022-09-09T16:21:47;20.40;99.90
29571;DHT22;16814;52.118;11.436;2022-09-09T16:24:15;20.40;99.90
29571;DHT22;16814;52.118;11.436;2022-09-09T16:26:44;20.40;99.90
29571;DHT22;16814;52.118;11.436;2022-09-09T16:29:13;20.40;99.90
29571;DHT22;16814;52.118;11.436;2022-09-09T16:31:40;20.40;99.90
29571;DHT22;16814;52.118;11.436;2022-09-09T16:34:07;20.60;99.90
29571;DHT22;16814;52.118;11.436;2022-09-09T16:36:35;20.60;99.90
29571;DHT22;16814;52.118;11.436;2022-09-09T16:39:03;20.50;99.90
29571;DHT22;16814;52.118;11.436;2022-09-09T16:41:30;20.60;99.90
29571;DHT22;16814;52.118;11.436;2022-09-09T16:43:58;20.50;99.90
29571;DHT22;16814;52.118;11.436;2022-09-09T16:46:25;20.40;99.90